Esler Regional Airport
KESF : rendu visible

Aérodrome :











RETROUVEZ-NOUS SUR...

 
LOGIN :

S'inscrire | Disclaimer

   EN    FR    IT 

 









Légende :    VFR   VFR Marginal   IFR   IFR Intensif   IFR Très Intensif
Visi : 
Plafond : 
>= 8 km
>= 3000ft
5 à 8 km
1000 à 3000 ft
1500m à 5 km
500 à 1000 ft
800 à 1500m
200 à 500 ft
< 800m
< 200 ft
Symboles :   Orages  Brouillard  Fortes neiges  Fortes précipitations  Vent > 20 kt






- Altitude de l'aérodrome : 112 ft


KESF - Esler Regional

DERNIER METAR :
  • 150653Z AUTO 34004KT 7SM OVC004 06/05 A3033 RMK AO2 SLP271 T00560050

METARs EXPIRÉS :
  • 150634Z AUTO VRB03KT 8SM OVC004 06/05 A3033 RMK AO2 T00560050
  • 150553Z AUTO 36003KT 10SM OVC007 06/05 A3033 RMK AO2 CIG 005V009 SLP272 60001 T00610050 10067 20061 400780044 50002
  • 150453Z AUTO 00000KT 10SM OVC007 07/06 A3033 RMK AO2 CIG 005V009 SLP272 T00670056

TAF N/A



MET'MAP, la Météo Aéronautique d'un coup d'oeil ! - Copyright ORBIFLY Décembre 2007 - Disclaimer

ORBIFLY MET'MAP TEAM :

Programmation & Développement : Alexandra Zaïnal
Conception & Développement : Baudouin d'Aumeries
Co-Programmation & Développement : Marc-Olivier Méhu
Soutien technique & logistique : Manuel Goepfert

Contact : metmap@orbifly.com




SOURCES & CREDITS :

   NOAA       Earth
Advisory